Highland Valley West (175) Station Data

Red Flag Warning: No
Fire Weather Zone: 250
SDGE Region: Ramona
Lat/Lon: 33.067/-116.99

Observations

Time Wind Speed/Gust Temp(F) RH Fuel Moist Fuel Temp(F) Dewpt(F) Tmax(F) Tmin(F) Accum Precip 10-min Precip SL Press(mb)
5/24 8:20am 132 6 G 12 60° 97% - - 59° 61.6° 54.1° - - -
5/24 8:10am 92 9 G 14 58° 98% - - 58° 61.6° 54.1° - - -
5/24 8:00am 91 7 G 11 57° 98% - - 56° 61.6° 54.1° - - -
5/24 7:50am 88 7 G 11 56° 98% - - 55° 61.6° 54.1° - - -
5/24 7:40am 60 4 G 7 56° 98% - - 55° 61.6° 54.1° - - -
5/24 7:30am 13 1 G 4 56° 98% - - 56° 61.6° 54.1° - - -
5/24 7:20am 303 2 G 4 56° 98% - - 55° 61.6° 54.1° - - -
5/24 7:10am 284 2 G 5 56° 97% - - 55° 61.6° 54.1° - - -
5/24 7:00am 249 3 G 5 56° 97% - - 55° 61.6° 54.1° - - -
5/24 6:50am 230 5 G 10 56° 97% - - 55° 61.6° 54.1° - - -
5/24 6:40am 269 4 G 8 56° 97% - - 55° 61.6° 54.1° - - -
5/24 6:30am 315 2 G 7 56° 96% - - 55° 61.6° 54.1° - - -
5/24 6:20am 276 4 G 8 56° 96% - - 55° 61.6° 54.1° - - -
5/24 6:10am 289 3 G 5 55° 96% - - 54° 61.6° 54.1° - - -
5/24 6:00am 273 2 G 4 55° 95% - - 54° 61.6° 54.1° - - -
5/24 5:50am 278 3 G 5 55° 91% - - 53° 61.6° 54.1° - - -
5/24 5:40am 269 2 G 5 59° 84% - - 55° 61.6° 54.1° - - -
5/24 5:30am 56 7 G 11 60° 92% - - 57° 60.7° 54.1° - - -
5/24 5:20am 57 8 G 11 59° 97% - - 58° 60.5° 54.1° - - -
5/24 5:10am 71 8 G 11 57° 98% - - 56° 60.5° 54.1° - - -
5/24 5:00am 67 8 G 11 55° 98% - - 54° 60.5° 54.1° - - -
5/24 4:50am 72 6 G 10 55° 98% - - 54° 60.5° 54.1° - - -
5/24 4:40am 68 4 G 6 55° 98% - - 54° 60.5° 54.1° - - -
5/24 4:30am 69 4 G 5 55° 97% - - 54° 60.5° 54.1° - - -
5/24 4:20am 85 3 G 5 55° 97% - - 55° 60.5° 54.1° - - -
5/24 4:10am 111 0 G 2 55° 97% - - 55° 60.5° 54.1° - - -
5/24 4:00am 140 1 G 2 55° 97% - - 54° 60.5° 54.1° - - -
5/24 3:50am 136 1 G 2 55° 97% - - 55° 60.5° 54.1° - - -
5/24 3:40am 148 0 G 1 56° 97% - - 55° 60.5° 54.1° - - -
5/24 3:30am 250 0 G 2 55° 97% - - 54° 60.5° 54.1° - - -
5/24 3:20am 0 0 G 0 55° 97% - - 54° 60.5° 54.1° - - -
5/24 3:10am 190 0 G 1 55° 96% - - 54° 60.5° 54.1° - - -
5/24 3:00am 84 0 G 2 55° 96% - - 54° 60.5° 54.1° - - -
5/24 2:50am 97 1 G 2 55° 96% - - 54° 60.5° 54.1° - - -
5/24 2:40am 221 0 G 1 55° 95% - - 53° 60.5° 54.1° - - -
5/24 2:30am 236 0 G 1 54° 95% - - 53° 60.5° 54.1° - - -
5/24 2:20am 354 0 G 1 55° 94% - - 53° 60.5° 54.4° - - -
5/24 2:10am 146 0 G 1 55° 93% - - 54° 60.5° 54.8° - - -
5/24 2:00am 216 1 G 2 57° 92% - - 54° 60.5° 55.8° - - -
5/24 1:50am 301 0 G 1 58° 90% - - 55° 60.5° 57.1° - - -
5/24 1:40am 287 2 G 3 59° 89% - - 56° 60.5° 57.5° - - -
5/24 1:30am 68 4 G 6 60° 89% - - 57° 60.5° 57.5° - - -
5/24 1:20am 60 4 G 5 59° 90% - - 56° 60.1° 57.5° - - -
5/24 1:10am 66 4 G 5 59° 91% - - 56° 59.6° 57.5° - - -
5/24 1:00am 72 4 G 6 58° 92% - - 56° 59.6° 57.5° - - -
5/24 12:50am 60 4 G 6 58° 93% - - 56° 59.6° 57.5° - - -
5/24 12:40am 77 4 G 6 58° 92% - - 56° 59.6° 57.5° - - -
5/24 12:30am 79 3 G 5 58° 91% - - 55° 59.6° 57.5° - - -
5/24 12:20am 88 1 G 3 58° 90% - - 55° 59.6° 57.5° - - -
5/24 12:10am 304 2 G 3 59° 89% - - 56° 59.6° 58.6° - - -
5/24 12:00am 128 0 G 1 59° 86% - - 55° 84.6° 54.7° - - -
5/23 11:50pm 54 0 G 1 60° 84% - - 55° 84.6° 54.7° - - -
5/23 11:40pm 273 0 G 2 60° 83% - - 55° 84.6° 54.7° - - -
5/23 11:30pm 41 1 G 3 61° 81% - - 55° 84.6° 54.7° - - -
5/23 11:20pm 65 1 G 2 61° 82% - - 55° 84.6° 54.7° - - -
5/23 11:10pm 106 2 G 3 61° 80% - - 55° 84.6° 54.7° - - -
5/23 11:00pm 16 1 G 2 63° 79% - - 56° 84.6° 54.7° - - -
5/23 10:50pm 47 0 G 1 62° 80% - - 56° 84.6° 54.7° - - -
5/23 10:40pm 192 1 G 2 63° 78% - - 56° 84.6° 54.7° - - -
5/23 10:30pm 305 1 G 2 65° 75% - - 56° 84.6° 54.7° - - -
5/23 10:20pm 64 2 G 3 65° 72% - - 56° 84.6° 54.7° - - -
5/23 10:10pm 68 3 G 4 65° 72% - - 56° 84.6° 54.7° - - -
5/23 10:00pm 67 4 G 4 65° 73% - - 56° 84.6° 54.7° - - -
5/23 9:50pm 71 2 G 3 66° 70% - - 56° 84.6° 54.7° - - -
5/23 9:40pm 62 2 G 4 67° 69% - - 56° 84.6° 54.7° - - -
5/23 9:30pm 61 2 G 3 67° 68% - - 56° 84.6° 54.7° - - -
5/23 9:20pm 72 2 G 3 66° 69% - - 56° 84.6° 54.7° - - -
5/23 9:10pm 154 0 G 1 68° 66% - - 56° 84.6° 54.7° - - -
5/23 9:00pm 71 1 G 2 68° 64% - - 56° 84.6° 54.7° - - -
5/23 8:50pm 93 2 G 2 68° 65% - - 56° 84.6° 54.7° - - -
5/23 8:40pm 81 1 G 2 69° 64% - - 56° 84.6° 54.7° - - -
5/23 8:30pm 59 1 G 2 69° 64% - - 56° 84.6° 54.7° - - -
5/23 8:20pm 76 2 G 3 69° 64% - - 57° 84.6° 54.7° - - -
5/23 8:10pm 54 1 G 2 69° 66% - - 57° 84.6° 54.7° - - -
5/23 8:00pm 145 0 G 1 69° 65% - - 57° 84.6° 54.7° - - -
5/23 7:50pm 279 0 G 2 71° 61% - - 57° 84.6° 54.7° - - -
5/23 7:40pm 298 1 G 4 71° 60% - - 56° 84.6° 54.7° - - -
5/23 7:30pm 310 2 G 4 72° 58% - - 57° 84.6° 54.7° - - -
5/23 7:20pm 275 3 G 8 73° 57% - - 57° 84.6° 54.7° - - -
5/23 7:10pm 268 4 G 8 73° 56% - - 57° 84.6° 54.7° - - -
5/23 7:00pm 280 5 G 9 74° 55% - - 57° 84.6° 54.7° - - -
5/23 6:50pm 276 6 G 10 75° 54% - - 57° 84.6° 54.7° - - -
5/23 6:40pm 264 6 G 10 76° 51% - - 57° 84.6° 54.7° - - -
5/23 6:30pm 270 5 G 10 77° 51% - - 57° 84.6° 54.7° - - -
5/23 6:20pm 263 5 G 9 78° 49% - - 57° 84.6° 54.7° - - -
5/23 6:10pm 258 6 G 10 78° 49% - - 57° 84.6° 54.7° - - -
5/23 6:00pm 255 5 G 10 79° 48% - - 57° 84.6° 54.7° - - -
5/23 5:50pm 254 6 G 11 80° 47% - - 57° 84.6° 54.7° - - -
5/23 5:40pm 253 5 G 10 81° 45% - - 57° 84.6° 54.7° - - -
5/23 5:30pm 263 5 G 10 82° 43% - - 57° 84.6° 54.7° - - -
5/23 5:20pm 288 5 G 10 83° 37% - - 54° 84.6° 54.7° - - -
5/23 5:10pm 268 3 G 7 84° 36% - - 54° 84.5° 54.7° - - -
5/23 5:00pm 254 3 G 6 83° 37% - - 54° 83.5° 54.7° - - -
5/23 4:50pm 274 3 G 8 83° 38% - - 54° 83.5° 54.7° - - -
5/23 4:40pm 278 3 G 9 82° 38% - - 54° 83.3° 54.7° - - -
5/23 4:30pm 268 3 G 6 82° 38% - - 54° 83.3° 54.7° - - -
5/23 4:20pm 299 3 G 7 81° 40% - - 55° 83.3° 54.7° - - -
5/23 4:10pm 264 3 G 7 81° 40% - - 55° 83.3° 54.7° - - -
5/23 4:00pm 251 4 G 7 80° 42% - - 55° 83.3° 54.7° - - -
5/23 3:50pm 309 4 G 7 80° 43% - - 55° 83.3° 54.7° - - -
5/23 3:40pm 251 3 G 7 79° 46% - - 57° 83.3° 54.7° - - -
5/23 3:30pm 257 5 G 8 78° 49% - - 57° 83.3° 54.7° - - -
5/23 3:20pm 247 5 G 9 78° 51% - - 58° 83.3° 54.7° - - -
5/23 3:10pm 277 5 G 11 77° 54% - - 59° 83.3° 54.7° - - -
5/23 3:00pm 275 6 G 10 76° 56% - - 59° 83.3° 54.7° - - -
5/23 2:50pm 283 6 G 9 75° 58% - - 59° 83.3° 54.7° - - -
5/23 2:40pm 277 5 G 11 75° 57% - - 59° 83.3° 54.7° - - -
5/23 2:30pm 248 5 G 10 74° 59% - - 59° 83.3° 54.7° - - -
5/23 2:20pm 249 6 G 12 75° 58% - - 59° 83.3° 54.7° - - -
5/23 2:10pm 255 6 G 10 74° 59% - - 59° 83.3° 54.7° - - -
5/23 2:00pm 262 6 G 10 73° 60% - - 59° 83.3° 54.7° - - -
5/23 1:50pm 267 6 G 11 73° 61% - - 59° 83.3° 54.7° - - -
5/23 1:40pm 279 7 G 12 73° 62% - - 59° 83.3° 54.7° - - -
5/23 1:30pm 275 8 G 15 72° 63% - - 59° 83.3° 54.7° - - -
5/23 1:20pm 276 8 G 14 72° 63% - - 59° 83.3° 54.7° - - -
5/23 1:10pm 280 7 G 13 73° 62% - - 59° 83.3° 54.7° - - -
5/23 1:00pm 259 7 G 12 73° 61% - - 59° 83.3° 54.7° - - -
5/23 12:50pm 250 8 G 14 73° 62% - - 59° 83.3° 54.7° - - -
5/23 12:40pm 254 8 G 15 74° 61% - - 60° 83.3° 54.7° - - -
5/23 12:30pm 257 8 G 13 73° 60% - - 59° 83.3° 54.7° - - -
5/23 12:20pm 252 8 G 13 75° 57% - - 59° 83.3° 54.7° - - -
5/23 12:10pm 242 9 G 14 76° 56% - - 59° 83.3° 54.7° - - -
5/23 12:00pm 257 8 G 15 77° 54% - - 59° 83.3° 54.7° - - -
5/23 11:50am 254 8 G 13 78° 53% - - 60° 83.3° 54.7° - - -
5/23 11:40am 266 7 G 15 80° 51% - - 60° 83.3° 54.7° - - -
5/23 11:30am 267 8 G 14 81° 48% - - 59° 83.3° 54.7° - - -
5/23 11:20am 249 7 G 12 82° 36% - - 52° 83.1° 54.7° - - -
5/23 11:10am 261 7 G 12 82° 40% - - 55° 82.9° 54.7° - - -
5/23 11:00am 273 6 G 11 81° 44% - - 57° 82.9° 54.7° - - -
5/23 10:50am 285 5 G 9 82° 42% - - 57° 82.9° 54.7° - - -
5/23 10:40am 278 3 G 7 82° 42% - - 57° 82.7° 54.7° - - -
5/23 10:30am 299 2 G 4 81° 45% - - 57° 82.6° 54.7° - - -
5/23 10:20am 280 2 G 4 80° 46% - - 57° 82.6° 54.7° - - -
5/23 10:10am 276 2 G 5 81° 45% - - 58° 82.6° 54.7° - - -
5/23 10:00am 286 0 G 2 80° 48% - - 59° 81.6° 54.7° - - -
5/23 9:50am 283 1 G 3 78° 52% - - 59° 79.9° 54.7° - - -
5/23 9:40am 270 2 G 3 77° 53% - - 59° 78.3° 54.7° - - -
5/23 9:30am 277 1 G 4 77° 52% - - 58° 78.3° 54.7° - - -
5/23 9:20am 250 1 G 2 75° 55% - - 57° 76.4° 54.7° - - -
5/23 9:10am 105 1 G 3 72° 54% - - 55° 74.2° 54.7° - - -
5/23 9:00am 159 1 G 4 70° 59% - - 55° 71° 54.7° - - -
5/23 8:50am 101 3 G 5 69° 61% - - 55° 69.4° 54.7° - - -
5/23 8:40am 83 3 G 5 68° 65% - - 56° 69.3° 54.7° - - -
5/23 8:30am 101 1 G 3 65° 73% - - 57° 67.3° 54.7° - - -
5/23 8:20am 261 1 G 2 63° 77% - - 56° 64.9° 54.7° - - -
5/23 8:10am 282 0 G 2 62° 80% - - 56° 64.9° 54.7° - - -
5/23 8:00am 92 1 G 2 59° 88% - - 56° 64.9° 54.7° - - -
5/23 7:50am 284 1 G 3 58° 88% - - 55° 64.9° 54.7° - - -
5/23 7:40am 259 0 G 2 58° 89% - - 55° 64.9° 54.7° - - -
5/23 7:30am 226 1 G 2 58° 89% - - 54° 64.9° 54.7° - - -
5/23 7:20am 267 1 G 2 57° 89% - - 54° 64.9° 54.7° - - -
5/23 7:10am 291 2 G 4 58° 83% - - 53° 64.9° 54.7° - - -
5/23 7:00am 37 3 G 6 62° 70% - - 52° 64.9° 54.7° - - -
5/23 6:50am 55 5 G 7 61° 71% - - 52° 64.9° 54.7° - - -
5/23 6:40am 63 5 G 8 61° 71% - - 52° 64.9° 54.7° - - -
5/23 6:30am 69 4 G 8 61° 71% - - 52° 64.9° 54.7° - - -
5/23 6:20am 67 4 G 7 60° 76% - - 52° 64.9° 54.7° - - -
5/23 6:10am 44 1 G 5 60° 74% - - 52° 64.9° 54.7° - - -
5/23 6:00am 63 6 G 8 60° 75% - - 52° 64.9° 54.7° - - -